Terminal Aerodrome Forecast
Issued by NWS Wilmington, OH

Current Version | Previous Version | Graphics & Text | Print | Product List | Glossary Off
Versions: 1 2 3 4 5 6 7 8 9 10 11 12 13 14 15 16 17 18 19 20 21 22

000
FTUS41 KILN 292300
TAFILN
TAF
KILN 292335Z 3000/3024 18012KT P6SM VCSH SCT040
     FM300200 18007KT P6SM SCT035
     FM301500 21012KT P6SM SCT040
     FM301700 20013G21KT P6SM BKN040
     FM301900 20013G21KT P6SM VCTS BKN040CB
     FM302200 20012G20KT P6SM SCT040=

USA.gov is the U.S. government's official web portal to all federal, state and local government web resources and services.